Time;durP1;ratioP1;P1;durP2;ratioP2;P2;SDS_P1;SDS_P2;PMS_P1;PMS_P2;Temp;Humidity;BMP_temperature;BMP_pressure;BME280_temperature;BME280_humidity;BME280_pressure;Samples;Min_cycle;Max_cycle;Signal;HPM_P1;HPM_P2
2023/02/28 00:00:26;;;;;;;1.50;0.50;;;-1.90;99.90;;;;;;4896198;29;20050;-86
2023/02/28 00:02:52;;;;;;;2.58;0.50;;;-2.00;99.90;;;;;;4892361;29;20032;-86
2023/02/28 00:05:21;;;;;;;2.53;0.60;;;-1.90;99.90;;;;;;4909649;29;20520;-86
2023/02/28 00:07:47;;;;;;;2.38;0.60;;;-1.80;99.90;;;;;;4893318;29;20032;-85
2023/02/28 00:10:19;;;;;;;2.72;0.70;;;-1.80;99.90;;;;;;4895063;29;20056;-85
2023/02/28 00:12:44;;;;;;;1.92;0.60;;;-1.70;99.90;;;;;;4892841;29;20040;-88
2023/02/28 00:15:11;;;;;;;2.00;0.50;;;-1.60;99.90;;;;;;4910847;29;20078;-86
2023/02/28 00:17:37;;;;;;;2.38;0.50;;;-1.60;99.90;;;;;;4896390;29;20098;-85
2023/02/28 00:20:06;;;;;;;1.85;0.50;;;-1.60;99.90;;;;;;4914772;29;20037;-88
2023/02/28 00:22:31;;;;;;;1.83;0.50;;;-1.50;99.90;;;;;;4898151;29;20048;-85
2023/02/28 00:24:57;;;;;;;2.03;0.57;;;-1.50;99.90;;;;;;4913884;29;20397;-85
2023/02/28 00:27:23;;;;;;;1.55;0.50;;;-1.40;99.90;;;;;;4899100;29;20032;-86
2023/02/28 00:29:48;;;;;;;1.30;0.40;;;-1.30;99.90;;;;;;4899101;29;20168;-85
2023/02/28 00:32:14;;;;;;;1.90;0.50;;;-1.30;99.90;;;;;;4897469;29;20079;-85
2023/02/28 00:34:40;;;;;;;1.60;0.45;;;-1.30;99.90;;;;;;4887938;29;20032;-84
2023/02/28 00:37:07;;;;;;;1.30;0.40;;;-1.20;99.90;;;;;;4898271;29;20370;-87
2023/02/28 00:39:35;;;;;;;2.03;0.70;;;-1.20;99.90;;;;;;4915213;29;20032;-86
2023/02/28 00:42:02;;;;;;;1.88;0.40;;;-1.20;99.90;;;;;;4892594;29;20028;-84
2023/02/28 00:44:28;;;;;;;1.52;0.43;;;-1.20;99.90;;;;;;4894765;29;20032;-85
2023/02/28 00:46:54;;;;;;;1.48;0.50;;;-1.10;99.90;;;;;;4896004;29;20035;-86
2023/02/28 00:49:24;;;;;;;3.05;0.50;;;-1.00;99.90;;;;;;4894150;29;20028;-85
2023/02/28 00:51:50;;;;;;;1.48;0.45;;;-0.90;99.90;;;;;;4896329;29;20028;-85
2023/02/28 00:54:16;;;;;;;1.67;0.50;;;-0.80;99.90;;;;;;4897237;29;20067;-88
2023/02/28 00:56:42;;;;;;;2.75;0.52;;;-0.80;99.90;;;;;;4897662;29;20052;-88
2023/02/28 00:59:08;;;;;;;1.38;0.50;;;-1.00;99.90;;;;;;4898325;29;20036;-85
2023/02/28 01:01:34;;;;;;;2.72;0.50;;;-0.90;99.90;;;;;;4898275;29;20032;-85
2023/02/28 01:04:00;;;;;;;1.50;0.50;;;-1.00;99.90;;;;;;4895455;29;20032;-84
2023/02/28 01:06:25;;;;;;;1.20;0.40;;;-0.90;99.90;;;;;;4895054;29;20377;-87
2023/02/28 01:08:51;;;;;;;1.00;0.40;;;-1.00;99.90;;;;;;4913450;29;20032;-87
2023/02/28 01:11:17;;;;;;;2.35;0.77;;;-1.10;99.90;;;;;;4898008;29;20031;-84
2023/02/28 01:13:45;;;;;;;1.75;0.70;;;-1.00;99.90;;;;;;4913494;29;20068;-86
2023/02/28 01:16:12;;;;;;;1.75;0.50;;;-1.00;99.90;;;;;;4896308;29;20056;-85
2023/02/28 01:18:38;;;;;;;1.05;0.40;;;-0.90;99.90;;;;;;4914114;29;20039;-85
2023/02/28 01:21:10;;;;;;;0.80;0.30;;;-1.00;99.90;;;;;;4898157;29;20036;-84
2023/02/28 01:23:37;;;;;;;1.13;0.30;;;-1.00;99.90;;;;;;4893832;29;20036;-86
2023/02/28 01:26:07;;;;;;;1.30;0.40;;;-0.90;99.90;;;;;;4908959;29;20032;-85
2023/02/28 01:28:34;;;;;;;1.10;0.40;;;-0.70;99.90;;;;;;4897767;29;20537;-84
2023/02/28 01:31:00;;;;;;;1.27;0.40;;;-0.70;99.90;;;;;;4892664;29;20469;-86
2023/02/28 01:33:26;;;;;;;1.58;0.47;;;-0.60;99.90;;;;;;4913108;29;20040;-86
2023/02/28 01:36:09;;;;;;;0.95;0.30;;;-0.60;99.90;;;;;;4896478;29;20024;-86
2023/02/28 01:38:35;;;;;;;1.17;0.40;;;-0.60;99.90;;;;;;4897454;29;20068;-85
2023/02/28 01:41:01;;;;;;;1.05;0.40;;;-0.60;99.90;;;;;;4913981;29;20115;-85
2023/02/28 01:43:50;;;;;;;1.98;0.60;;;-0.50;99.90;;;;;;4896675;29;20028;-85
2023/02/28 01:46:16;;;;;;;1.13;0.40;;;-0.50;99.90;;;;;;4817261;29;20103;-85
2023/02/28 01:48:49;;;;;;;1.08;0.40;;;-0.50;99.90;;;;;;4834493;29;20046;-86
2023/02/28 01:51:20;;;;;;;1.58;0.45;;;-0.50;99.90;;;;;;4812783;29;20041;-86
2023/02/28 01:53:52;;;;;;;1.50;0.50;;;-0.40;99.90;;;;;;4810199;29;20049;-85
2023/02/28 01:56:23;;;;;;;1.17;0.50;;;-0.30;99.90;;;;;;4818913;29;20061;-86
2023/02/28 01:58:54;;;;;;;1.75;0.40;;;-0.40;99.90;;;;;;4810660;29;20049;-85
2023/02/28 02:01:22;;;;;;;2.10;0.50;;;-0.30;99.90;;;;;;4810414;29;20037;-83
2023/02/28 02:03:55;;;;;;;2.33;0.50;;;-0.40;99.90;;;;;;4835250;29;20038;-86
2023/02/28 02:06:27;;;;;;;1.40;0.50;;;-0.30;99.90;;;;;;4828702;29;20030;-84
2023/02/28 02:08:53;;;;;;;1.20;0.50;;;-0.20;99.90;;;;;;4836025;29;20030;-84
2023/02/28 02:11:21;;;;;;;1.88;0.50;;;-0.20;99.90;;;;;;4814092;29;20384;-84
2023/02/28 02:14:38;;;;;;;1.25;0.40;;;-0.20;99.90;;;;;;4832131;29;20060;-88
2023/02/28 02:17:29;;;;;;;1.60;0.40;;;-0.10;99.90;;;;;;4805886;29;20136;-84
2023/02/28 02:20:43;;;;;;;1.13;0.40;;;-0.10;99.90;;;;;;4833105;29;20034;-82
2023/02/28 02:23:12;;;;;;;1.25;0.40;;;0.00;99.90;;;;;;4871263;29;20036;-84
2023/02/28 02:25:53;;;;;;;2.20;0.60;;;-0.20;99.90;;;;;;4893087;29;20039;-84
2023/02/28 02:28:50;;;;;;;1.85;0.60;;;-0.10;99.90;;;;;;4894894;29;20035;-84
2023/02/28 02:31:34;;;;;;;2.42;0.50;;;-0.10;99.90;;;;;;4892076;29;20071;-84
2023/02/28 02:34:34;;;;;;;1.48;0.50;;;-0.10;99.90;;;;;;4908977;29;20084;-84
2023/02/28 02:37:31;;;;;;;1.30;0.50;;;0.00;99.90;;;;;;4895403;29;20028;-84
2023/02/28 02:40:25;;;;;;;1.40;0.50;;;0.00;99.90;;;;;;4895793;29;20020;-84
2023/02/28 02:43:01;;;;;;;1.88;0.50;;;0.00;99.90;;;;;;4896473;29;20040;-85
2023/02/28 02:45:43;;;;;;;1.60;0.50;;;0.10;99.90;;;;;;4911551;29;20063;-84
2023/02/28 02:48:15;;;;;;;1.77;0.40;;;0.00;99.90;;;;;;4893719;29;20042;-84
2023/02/28 02:50:46;;;;;;;1.00;0.40;;;0.00;99.90;;;;;;4894943;29;20429;-85
2023/02/28 02:53:16;;;;;;;1.50;0.50;;;0.00;99.90;;;;;;4894903;29;20314;-89
2023/02/28 02:55:46;;;;;;;1.60;0.60;;;0.00;99.90;;;;;;4895143;29;20371;-84
2023/02/28 02:58:16;;;;;;;1.33;0.50;;;0.10;99.90;;;;;;4893466;29;20149;-85
2023/02/28 03:00:55;;;;;;;1.23;0.40;;;0.10;99.90;;;;;;4896562;29;20036;-84
2023/02/28 03:03:28;;;;;;;1.53;0.40;;;0.10;99.90;;;;;;4892967;29;20038;-83
2023/02/28 03:05:59;;;;;;;1.88;0.52;;;0.10;99.90;;;;;;4911050;29;20299;-88
2023/02/28 03:08:28;;;;;;;2.75;0.70;;;0.10;99.90;;;;;;4912100;29;20032;-86
2023/02/28 03:11:02;;;;;;;1.70;0.60;;;0.10;99.90;;;;;;4895933;29;20362;-83
2023/02/28 03:13:42;;;;;;;1.35;0.50;;;0.10;99.90;;;;;;4906954;29;20247;-87
2023/02/28 03:16:08;;;;;;;2.08;0.60;;;0.20;99.90;;;;;;4891803;29;20039;-87
2023/02/28 03:18:52;;;;;;;2.35;0.70;;;0.20;99.90;;;;;;4894152;29;20393;-85
2023/02/28 03:21:27;;;;;;;2.10;0.60;;;0.20;99.90;;;;;;4895989;29;20315;-83
2023/02/28 03:24:08;;;;;;;2.47;0.50;;;0.10;99.90;;;;;;4912047;29;20111;-84
2023/02/28 03:26:40;;;;;;;1.70;0.50;;;0.20;99.90;;;;;;4891608;29;20442;-84
2023/02/28 03:29:12;;;;;;;1.73;0.60;;;0.20;99.90;;;;;;4913147;29;20032;-86
2023/02/28 03:32:23;;;;;;;2.40;0.45;;;0.10;99.90;;;;;;4913008;29;20040;-84
2023/02/28 03:35:03;;;;;;;1.63;0.57;;;0.20;99.90;;;;;;4909900;29;20126;-85
2023/02/28 03:37:31;;;;;;;1.70;0.50;;;0.20;99.90;;;;;;4892836;29;20480;-84
2023/02/28 03:40:03;;;;;;;1.58;0.57;;;0.30;99.90;;;;;;4891991;29;20043;-82
2023/02/28 03:42:31;;;;;;;1.23;0.50;;;0.30;99.90;;;;;;4911582;29;20050;-87
2023/02/28 03:45:00;;;;;;;2.05;0.60;;;0.20;99.90;;;;;;4911190;29;20032;-84
2023/02/28 03:47:35;;;;;;;1.52;0.50;;;0.30;99.90;;;;;;4911008;29;20135;-85
2023/02/28 03:50:14;;;;;;;1.73;0.50;;;0.20;99.90;;;;;;4911493;29;20040;-85
2023/02/28 03:52:45;;;;;;;2.20;0.70;;;0.20;99.90;;;;;;4898372;29;20312;-84
2023/02/28 03:55:13;;;;;;;1.20;0.50;;;0.30;99.90;;;;;;4916153;29;20024;-85
2023/02/28 03:58:07;;;;;;;3.38;0.63;;;0.30;99.90;;;;;;4895472;29;20048;-82
2023/02/28 04:00:38;;;;;;;2.75;0.70;;;0.30;99.90;;;;;;4891642;29;20059;-85
2023/02/28 04:03:05;;;;;;;3.85;0.60;;;0.30;99.90;;;;;;4904574;29;20060;-84
2023/02/28 04:05:31;;;;;;;2.20;0.85;;;0.30;99.90;;;;;;4892919;29;20469;-87
2023/02/28 04:08:05;;;;;;;2.35;0.68;;;0.40;99.90;;;;;;4896531;29;20491;-84
2023/02/28 04:10:30;;;;;;;2.97;0.70;;;0.30;99.90;;;;;;4907454;29;20036;-84
2023/02/28 04:12:56;;;;;;;2.33;0.90;;;0.30;99.90;;;;;;4895421;29;20037;-85
2023/02/28 04:15:24;;;;;;;2.05;0.70;;;0.40;99.90;;;;;;4910748;29;20040;-85
2023/02/28 04:17:50;;;;;;;1.50;0.60;;;0.40;99.90;;;;;;4892753;29;20093;-85
2023/02/28 04:20:16;;;;;;;1.63;0.77;;;0.40;99.90;;;;;;4911716;29;20473;-84
2023/02/28 04:22:42;;;;;;;3.55;0.93;;;0.40;99.90;;;;;;4896249;29;20088;-86
2023/02/28 04:25:08;;;;;;;2.85;1.00;;;0.40;99.90;;;;;;4895425;29;20041;-83
2023/02/28 04:27:33;;;;;;;2.08;0.80;;;0.40;99.90;;;;;;4891729;29;20052;-85
2023/02/28 04:29:59;;;;;;;2.75;1.02;;;0.40;99.90;;;;;;4893431;29;20032;-85
2023/02/28 04:32:25;;;;;;;3.47;0.80;;;0.40;99.90;;;;;;4893060;29;20511;-86
2023/02/28 04:34:50;;;;;;;3.13;0.80;;;0.40;99.90;;;;;;4896939;29;20048;-84
2023/02/28 04:37:16;;;;;;;4.25;0.95;;;0.40;99.90;;;;;;4895075;29;20025;-84
2023/02/28 04:39:42;;;;;;;2.50;1.05;;;0.40;99.90;;;;;;4896657;29;20393;-84
2023/02/28 04:42:08;;;;;;;2.83;0.88;;;0.40;99.90;;;;;;4896244;29;20537;-85
2023/02/28 04:44:34;;;;;;;1.35;0.50;;;0.50;99.90;;;;;;4911162;29;20037;-83
2023/02/28 04:46:59;;;;;;;1.60;0.50;;;0.40;99.90;;;;;;4910065;29;20037;-84
2023/02/28 04:49:25;;;;;;;1.70;0.60;;;0.40;99.90;;;;;;4891427;29;20079;-87
2023/02/28 04:51:52;;;;;;;1.65;0.50;;;0.40;99.90;;;;;;4891754;29;20119;-86
2023/02/28 04:54:18;;;;;;;2.38;0.60;;;0.40;99.90;;;;;;4909410;29;20040;-85
2023/02/28 04:56:44;;;;;;;1.55;0.60;;;0.50;99.90;;;;;;4894948;29;20119;-84
2023/02/28 04:59:09;;;;;;;1.60;0.50;;;0.40;99.90;;;;;;4894679;29;20115;-83
2023/02/28 05:01:36;;;;;;;2.13;0.50;;;0.50;99.90;;;;;;4883851;29;20459;-87
2023/02/28 05:04:03;;;;;;;1.42;0.50;;;0.40;99.90;;;;;;4890822;29;20445;-84
2023/02/28 05:06:31;;;;;;;1.60;0.50;;;0.40;99.90;;;;;;4910102;29;20028;-82
2023/02/28 05:08:57;;;;;;;1.25;0.50;;;0.50;99.90;;;;;;4890564;29;20131;-84
2023/02/28 05:11:33;;;;;;;1.50;0.47;;;0.50;99.90;;;;;;4891161;29;20036;-85
2023/02/28 05:13:59;;;;;;;1.52;0.50;;;0.50;99.90;;;;;;4876011;29;20041;-83
2023/02/28 05:16:25;;;;;;;1.88;0.47;;;0.50;99.90;;;;;;4910256;29;20516;-86
2023/02/28 05:18:50;;;;;;;1.38;0.40;;;0.40;99.90;;;;;;4910028;29;20526;-86
2023/02/28 05:21:23;;;;;;;1.15;0.40;;;0.50;99.90;;;;;;4910261;29;20032;-83
2023/02/28 05:23:49;;;;;;;1.42;0.47;;;0.50;99.90;;;;;;4892011;29;20039;-84
2023/02/28 05:26:14;;;;;;;3.22;0.50;;;0.50;99.90;;;;;;4893633;29;20029;-86
2023/02/28 05:28:40;;;;;;;1.80;0.50;;;0.50;99.90;;;;;;4894367;29;20040;-86
2023/02/28 05:31:06;;;;;;;2.38;0.60;;;0.50;99.90;;;;;;4894390;29;20033;-83
2023/02/28 05:33:31;;;;;;;1.25;0.40;;;0.50;99.90;;;;;;4889814;29;20072;-84
2023/02/28 05:35:57;;;;;;;1.48;0.50;;;0.50;99.90;;;;;;4909762;29;20028;-85
2023/02/28 05:38:23;;;;;;;2.25;0.60;;;0.50;99.90;;;;;;4893964;29;20047;-87
2023/02/28 05:40:48;;;;;;;1.85;0.40;;;0.50;99.90;;;;;;4910227;29;20036;-84
2023/02/28 05:43:14;;;;;;;1.40;0.60;;;0.50;99.90;;;;;;4875896;29;20508;-83
2023/02/28 05:45:39;;;;;;;1.73;0.60;;;0.40;99.90;;;;;;4894357;29;20036;-86
2023/02/28 05:48:05;;;;;;;1.40;0.40;;;0.40;99.90;;;;;;4894448;29;20493;-83
2023/02/28 05:50:31;;;;;;;1.17;0.40;;;0.40;99.90;;;;;;4895563;29;20029;-83
2023/02/28 05:52:57;;;;;;;0.85;0.40;;;0.40;99.90;;;;;;4894313;29;20080;-83
2023/02/28 05:55:22;;;;;;;1.00;0.30;;;0.40;99.90;;;;;;4895395;29;20033;-88
2023/02/28 05:57:48;;;;;;;2.45;0.40;;;0.40;99.90;;;;;;4893057;29;20128;-84
2023/02/28 06:00:15;;;;;;;1.20;0.40;;;0.50;99.90;;;;;;4894007;29;20526;-82
2023/02/28 06:02:41;;;;;;;1.13;0.40;;;0.40;99.90;;;;;;4876502;29;20079;-84
2023/02/28 06:05:15;;;;;;;1.23;0.40;;;0.50;99.90;;;;;;4893594;29;20607;-87
2023/02/28 06:07:41;;;;;;;1.67;0.50;;;0.50;99.90;;;;;;4893189;29;20115;-84
2023/02/28 06:10:07;;;;;;;2.17;0.40;;;0.50;99.90;;;;;;4895011;29;20116;-83
2023/02/28 06:12:33;;;;;;;1.50;0.40;;;0.50;99.90;;;;;;4903483;29;20045;-84
2023/02/28 06:14:59;;;;;;;1.33;0.40;;;0.40;99.90;;;;;;4893282;29;20029;-85
2023/02/28 06:17:24;;;;;;;1.33;0.40;;;0.40;99.90;;;;;;4894903;29;20043;-83
2023/02/28 06:19:50;;;;;;;1.10;0.40;;;0.40;99.90;;;;;;4893630;29;20043;-84
2023/02/28 06:22:16;;;;;;;1.42;0.50;;;0.40;99.90;;;;;;4890365;29;20056;-85
2023/02/28 06:24:41;;;;;;;1.30;0.40;;;0.30;99.90;;;;;;4893679;29;20056;-87
2023/02/28 06:27:07;;;;;;;1.50;0.50;;;0.40;99.90;;;;;;4892237;29;20456;-83
2023/02/28 06:29:34;;;;;;;2.47;0.80;;;0.40;99.90;;;;;;4890512;29;20836;-84
2023/02/28 06:32:00;;;;;;;1.67;0.50;;;0.40;99.90;;;;;;4894459;29;20112;-87
2023/02/28 06:34:26;;;;;;;1.02;0.35;;;0.40;99.90;;;;;;4892138;29;20561;-83
2023/02/28 06:36:52;;;;;;;1.65;0.50;;;0.50;99.90;;;;;;4908766;29;20036;-83
2023/02/28 06:39:19;;;;;;;1.45;0.50;;;0.50;99.90;;;;;;4908681;29;20504;-87
2023/02/28 06:41:45;;;;;;;1.80;0.40;;;0.50;99.90;;;;;;4893606;29;20084;-88
2023/02/28 06:44:12;;;;;;;2.22;0.50;;;0.50;99.90;;;;;;4890114;29;20060;-83
2023/02/28 06:46:42;;;;;;;2.97;0.70;;;0.50;99.90;;;;;;4889768;29;20040;-83
2023/02/28 06:49:08;;;;;;;1.80;0.50;;;0.60;99.90;;;;;;4888365;29;20073;-86
2023/02/28 06:51:36;;;;;;;2.45;0.50;;;0.60;99.90;;;;;;4907021;29;20136;-88
2023/02/28 06:54:01;;;;;;;1.35;0.47;;;0.60;99.90;;;;;;4887577;29;20040;-84
2023/02/28 06:56:27;;;;;;;1.40;0.50;;;0.60;99.90;;;;;;4890485;29;20044;-89
2023/02/28 06:58:53;;;;;;;1.52;0.52;;;0.60;99.90;;;;;;4893810;29;20042;-88
2023/02/28 07:01:19;;;;;;;2.13;0.60;;;0.70;99.90;;;;;;4859323;29;20056;-83
2023/02/28 07:03:46;;;;;;;1.73;0.55;;;0.70;99.90;;;;;;4881115;29;20088;-84
2023/02/28 07:06:12;;;;;;;1.58;0.60;;;0.70;99.90;;;;;;4875096;29;20040;-84
2023/02/28 07:08:37;;;;;;;2.08;0.60;;;0.80;99.90;;;;;;4873483;29;20682;-83
2023/02/28 07:11:04;;;;;;;1.83;0.57;;;0.80;99.90;;;;;;4866501;29;20036;-84
2023/02/28 07:13:29;;;;;;;1.67;0.50;;;0.90;99.90;;;;;;4865544;29;20049;-83
2023/02/28 07:16:00;;;;;;;2.25;0.80;;;1.00;99.90;;;;;;4874326;29;20032;-84
2023/02/28 07:18:26;;;;;;;;;;;1.00;99.90;;;;;;4875224;29;20037;-84
2023/02/28 07:20:52;;;;;;;1.73;0.60;;;1.10;99.90;;;;;;4875276;29;19919;-84
2023/02/28 07:23:18;;;;;;;1.55;0.50;;;1.10;99.90;;;;;;4868853;29;20037;-84
2023/02/28 07:25:45;;;;;;;1.50;0.40;;;1.10;99.90;;;;;;4879247;29;20036;-84
2023/02/28 07:28:12;;;;;;;1.75;0.50;;;1.10;99.90;;;;;;4893659;29;20085;-84
2023/02/28 07:30:38;;;;;;;2.03;0.50;;;1.20;99.90;;;;;;4878679;29;20051;-83
2023/02/28 07:33:03;;;;;;;1.10;0.50;;;1.30;99.90;;;;;;4894489;29;20060;-84
2023/02/28 07:35:30;;;;;;;1.48;0.50;;;1.20;99.90;;;;;;4877587;29;20047;-84
2023/02/28 07:37:57;;;;;;;1.30;0.43;;;1.20;99.90;;;;;;4877764;29;20043;-84
2023/02/28 07:40:23;;;;;;;2.47;0.50;;;1.30;99.90;;;;;;4877308;29;20047;-84
2023/02/28 07:42:49;;;;;;;1.88;0.60;;;1.30;99.90;;;;;;4893402;29;20037;-84
2023/02/28 07:45:17;;;;;;;1.55;0.50;;;1.20;99.90;;;;;;4894397;29;20410;-84
2023/02/28 07:47:43;;;;;;;2.10;0.50;;;1.30;99.90;;;;;;4878574;29;20045;-81
2023/02/28 07:50:11;;;;;;;2.47;0.50;;;1.20;99.90;;;;;;4861068;29;20438;-82
2023/02/28 07:52:37;;;;;;;2.28;0.50;;;1.20;99.90;;;;;;4879763;29;20041;-84
2023/02/28 07:55:05;;;;;;;1.50;0.52;;;1.20;99.90;;;;;;4892458;29;20387;-83
2023/02/28 07:57:31;;;;;;;1.63;0.40;;;1.20;99.90;;;;;;4872558;29;20056;-83
2023/02/28 07:59:56;;;;;;;0.98;0.40;;;1.20;99.90;;;;;;4842035;29;20048;-82
2023/02/28 08:02:22;;;;;;;1.30;0.50;;;1.30;99.90;;;;;;4825873;29;20060;-85
2023/02/28 08:04:49;;;;;;;1.48;0.40;;;1.30;99.90;;;;;;4857068;29;20040;-83
2023/02/28 08:07:15;;;;;;;1.60;0.32;;;1.40;99.90;;;;;;4878153;29;20541;-83
2023/02/28 08:09:42;;;;;;;1.08;0.38;;;1.50;99.90;;;;;;4878868;29;20036;-83
2023/02/28 08:12:09;;;;;;;2.08;0.50;;;1.50;99.90;;;;;;4878428;29;20041;-83
2023/02/28 08:14:35;;;;;;;1.10;0.30;;;1.60;99.90;;;;;;4885072;29;20082;-82
2023/02/28 08:17:01;;;;;;;1.00;0.40;;;1.70;99.90;;;;;;4890285;29;20068;-83
2023/02/28 08:19:27;;;;;;;1.00;0.30;;;1.70;99.90;;;;;;4864191;29;20050;-83
2023/02/28 08:21:54;;;;;;;1.55;0.40;;;1.70;99.90;;;;;;4864165;29;20108;-84
2023/02/28 08:24:19;;;;;;;1.70;0.50;;;1.70;99.90;;;;;;4865311;29;20039;-83
2023/02/28 08:26:45;;;;;;;1.58;0.40;;;1.90;99.90;;;;;;4878283;29;20036;-83
2023/02/28 08:29:11;;;;;;;1.23;0.40;;;2.20;99.90;;;;;;4878460;29;21385;-84
2023/02/28 08:31:36;;;;;;;0.88;0.30;;;2.30;99.90;;;;;;4866148;29;20282;-85
2023/02/28 08:34:10;;;;;;;0.90;0.30;;;2.40;99.90;;;;;;4850001;29;20103;-83
2023/02/28 08:36:36;;;;;;;0.55;0.20;;;2.50;99.90;;;;;;4893503;29;20036;-84
2023/02/28 08:39:02;;;;;;;1.83;0.30;;;2.50;99.90;;;;;;4876686;29;20060;-84
2023/02/28 08:41:28;;;;;;;1.13;0.28;;;2.50;99.90;;;;;;4876354;29;20139;-82
2023/02/28 08:43:54;;;;;;;1.38;0.30;;;2.50;99.90;;;;;;4893015;29;20711;-82
2023/02/28 08:46:20;;;;;;;1.17;0.20;;;2.40;99.90;;;;;;4882990;29;20040;-84
2023/02/28 08:48:45;;;;;;;1.55;0.20;;;2.50;99.90;;;;;;4889554;29;20036;-84
2023/02/28 08:51:16;;;;;;;0.93;0.30;;;2.50;99.90;;;;;;4891936;29;20397;-83
2023/02/28 08:53:41;;;;;;;1.30;0.30;;;2.50;99.90;;;;;;4876841;29;20135;-83
2023/02/28 08:56:10;;;;;;;0.70;0.20;;;2.50;99.90;;;;;;4879630;29;20040;-85
2023/02/28 08:58:37;;;;;;;1.45;0.30;;;2.60;99.90;;;;;;4896087;29;20059;-82
2023/02/28 09:01:27;;;;;;;1.75;0.30;;;2.80;99.90;;;;;;4868549;29;20123;-83
2023/02/28 09:03:54;;;;;;;1.27;0.30;;;2.90;99.90;;;;;;4879911;29;20036;-83
2023/02/28 09:06:22;;;;;;;1.70;0.30;;;2.80;99.90;;;;;;4880008;29;20447;-83
2023/02/28 09:08:49;;;;;;;1.20;0.40;;;2.90;99.90;;;;;;4880388;29;20040;-84
2023/02/28 09:11:15;;;;;;;2.20;0.40;;;2.90;99.90;;;;;;4879844;29;20383;-83
2023/02/28 09:13:41;;;;;;;2.97;0.50;;;3.10;99.90;;;;;;4880096;29;20040;-83
2023/02/28 09:16:10;;;;;;;1.00;0.30;;;3.30;99.90;;;;;;4878658;29;20400;-82
2023/02/28 09:18:37;;;;;;;1.25;0.30;;;3.30;99.90;;;;;;4880982;29;20036;-84
2023/02/28 09:21:05;;;;;;;0.90;0.30;;;3.10;99.90;;;;;;4878673;29;20036;-83
2023/02/28 09:23:31;;;;;;;0.93;0.30;;;3.20;99.90;;;;;;4879501;29;20131;-84
2023/02/28 09:25:56;;;;;;;0.50;0.20;;;3.50;99.90;;;;;;4879904;29;20032;-84
2023/02/28 09:28:22;;;;;;;0.60;0.20;;;3.80;99.90;;;;;;4867231;29;20532;-82
2023/02/28 09:30:50;;;;;;;0.57;0.20;;;3.90;99.90;;;;;;4890562;29;20479;-83
2023/02/28 09:33:17;;;;;;;0.45;0.10;;;4.10;99.90;;;;;;4894901;29;20048;-84
2023/02/28 09:35:43;;;;;;;0.43;0.10;;;4.20;99.90;;;;;;4879304;29;20055;-83
2023/02/28 09:38:10;;;;;;;0.80;0.20;;;4.10;99.90;;;;;;4879273;29;20036;-82
2023/02/28 09:40:45;;;;;;;0.60;0.20;;;4.10;99.90;;;;;;4892778;29;20046;-83
2023/02/28 09:43:14;;;;;;;0.68;0.20;;;4.20;99.90;;;;;;4864570;29;20028;-83
2023/02/28 09:45:42;;;;;;;0.90;0.20;;;4.30;99.90;;;;;;4874026;29;20049;-82
2023/02/28 09:48:23;;;;;;;0.90;0.20;;;4.30;99.90;;;;;;4865809;29;20099;-82
2023/02/28 09:50:53;;;;;;;0.60;0.20;;;4.50;99.90;;;;;;4878207;29;20039;-83
2023/02/28 09:53:33;;;;;;;1.50;0.17;;;4.50;99.90;;;;;;4877818;29;20072;-83
2023/02/28 09:56:04;;;;;;;0.40;0.10;;;4.50;99.90;;;;;;4878692;29;20040;-82
2023/02/28 09:58:58;;;;;;;1.55;0.20;;;4.80;99.90;;;;;;4894738;29;20044;-83
2023/02/28 10:01:45;;;;;;;0.60;0.20;;;4.80;99.90;;;;;;4865481;29;20055;-83
2023/02/28 10:04:32;;;;;;;0.35;0.20;;;4.60;99.90;;;;;;4878759;29;20044;-82
2023/02/28 10:06:58;;;;;;;0.50;0.20;;;4.80;99.90;;;;;;4886437;29;20080;-84
2023/02/28 10:09:32;;;;;;;0.43;0.20;;;4.80;99.90;;;;;;4878372;29;20058;-83
2023/02/28 10:12:03;;;;;;;0.60;0.20;;;4.90;99.90;;;;;;4878488;29;20028;-83
2023/02/28 10:14:31;;;;;;;0.85;0.20;;;5.20;99.90;;;;;;4878005;29;20633;-85
2023/02/28 10:17:13;;;;;;;1.35;0.20;;;5.10;99.90;;;;;;4895221;29;20162;-83
2023/02/28 10:19:44;;;;;;;0.47;0.20;;;5.10;99.90;;;;;;4879076;29;20072;-85
2023/02/28 10:22:19;;;;;;;0.50;0.20;;;5.00;99.90;;;;;;4870411;29;20032;-84
2023/02/28 10:24:51;;;;;;;0.77;0.20;;;5.10;99.90;;;;;;4880121;29;20449;-85
2023/02/28 10:27:25;;;;;;;0.98;0.20;;;5.10;99.90;;;;;;4878783;29;20042;-84
2023/02/28 10:29:54;;;;;;;0.73;0.20;;;5.20;99.90;;;;;;4878545;29;20131;-84
2023/02/28 10:32:32;;;;;;;1.17;0.28;;;5.50;99.90;;;;;;4878203;29;20079;-83
2023/02/28 10:35:06;;;;;;;0.50;0.20;;;5.30;99.90;;;;;;4888131;29;20449;-84
2023/02/28 10:37:37;;;;;;;1.27;0.20;;;5.30;99.90;;;;;;4858770;29;20040;-84
2023/02/28 10:40:05;;;;;;;0.50;0.15;;;5.40;99.90;;;;;;4870607;29;20036;-83
2023/02/28 10:42:32;;;;;;;0.60;0.40;;;5.40;99.90;;;;;;4878541;29;20032;-84
2023/02/28 10:45:10;;;;;;;0.60;0.20;;;5.50;99.90;;;;;;4878871;29;20042;-85
2023/02/28 10:47:57;;;;;;;1.80;0.20;;;5.50;99.90;;;;;;4854497;29;20040;-85
2023/02/28 10:50:35;;;;;;;0.52;0.20;;;5.40;99.90;;;;;;4887559;29;20044;-84
2023/02/28 10:53:34;;;;;;;0.60;0.20;;;5.60;99.90;;;;;;4878250;29;20094;-84
2023/02/28 10:56:06;;;;;;;0.40;0.13;;;5.60;99.90;;;;;;4868422;29;20143;-84
2023/02/28 10:58:50;;;;;;;0.70;0.20;;;5.50;99.90;;;;;;4865479;29;20059;-84
2023/02/28 11:01:37;;;;;;;1.08;0.20;;;5.60;99.90;;;;;;4877929;29;20509;-83
2023/02/28 11:04:02;;;;;;;0.55;0.20;;;5.80;99.90;;;;;;4878071;29;20268;-84
2023/02/28 11:06:34;;;;;;;1.05;0.20;;;6.00;99.90;;;;;;4877569;29;20068;-84
2023/02/28 11:09:03;;;;;;;1.90;0.30;;;5.90;99.90;;;;;;4878577;29;20036;-84
2023/02/28 11:11:40;;;;;;;0.82;0.30;;;5.60;99.90;;;;;;4877220;29;20985;-83
2023/02/28 11:14:26;;;;;;;1.17;0.20;;;5.70;99.90;;;;;;4870054;29;20048;-84
2023/02/28 11:16:53;;;;;;;1.00;0.30;;;5.80;99.90;;;;;;4878698;29;20552;-83
2023/02/28 11:19:31;;;;;;;1.30;0.20;;;5.80;99.90;;;;;;4877168;29;20637;-83
2023/02/28 11:22:03;;;;;;;0.38;0.20;;;6.00;99.90;;;;;;4877227;29;20057;-82
2023/02/28 11:24:34;;;;;;;0.90;0.20;;;6.00;99.90;;;;;;4845911;29;20940;-84
2023/02/28 11:27:00;;;;;;;0.52;0.20;;;6.00;99.90;;;;;;4877629;29;20028;-82
2023/02/28 11:29:32;;;;;;;0.77;0.20;;;6.10;99.90;;;;;;4877588;29;20034;-84
2023/02/28 11:32:13;;;;;;;0.40;0.10;;;6.20;99.90;;;;;;4877286;29;20064;-84
2023/02/28 11:34:40;;;;;;;0.73;0.30;;;6.30;99.90;;;;;;4878618;29;20052;-83
2023/02/28 11:37:12;;;;;;;0.77;0.20;;;6.10;99.90;;;;;;4878294;29;20067;-84
2023/02/28 11:39:37;;;;;;;0.68;0.20;;;6.10;99.90;;;;;;4878676;29;20036;-83
2023/02/28 11:42:32;;;;;;;1.52;0.28;;;5.80;99.90;;;;;;4876977;29;20042;-84
2023/02/28 11:45:26;;;;;;;1.95;0.38;;;6.10;99.90;;;;;;4878461;29;20039;-84
2023/02/28 11:48:11;;;;;;;1.20;0.28;;;5.90;99.90;;;;;;4873457;29;20221;-85
2023/02/28 11:50:45;;;;;;;2.13;0.20;;;6.10;99.90;;;;;;4872051;29;20394;-84
2023/02/28 11:53:32;;;;;;;0.60;0.20;;;6.40;99.90;;;;;;4877302;29;20185;-83
2023/02/28 11:56:07;;;;;;;0.80;0.28;;;6.20;99.90;;;;;;4883875;29;20136;-84
2023/02/28 11:58:48;;;;;;;0.98;0.28;;;6.10;99.90;;;;;;4871826;29;20044;-83
2023/02/28 12:01:24;;;;;;;0.70;0.20;;;6.20;99.90;;;;;;4867938;29;20056;-84
2023/02/28 12:04:02;;;;;;;0.75;0.30;;;6.20;99.90;;;;;;4872476;29;20044;-84
2023/02/28 12:06:57;;;;;;;1.45;0.30;;;6.40;99.90;;;;;;4868752;29;20071;-84
2023/02/28 12:09:58;;;;;;;0.95;0.30;;;6.50;99.90;;;;;;4877235;29;20032;-84
2023/02/28 12:12:32;;;;;;;1.25;0.20;;;6.40;99.90;;;;;;4812633;29;21125;-83
2023/02/28 12:15:21;;;;;;;0.88;0.30;;;6.60;99.90;;;;;;4793534;29;20057;-81
2023/02/28 12:18:06;;;;;;;1.48;0.30;;;6.50;99.90;;;;;;4854576;29;20069;-83
2023/02/28 12:21:09;;;;;;;1.02;0.30;;;6.30;99.90;;;;;;4838714;29;20212;-83
2023/02/28 12:23:44;;;;;;;1.10;0.30;;;6.30;99.90;;;;;;4811831;29;20610;-83
2023/02/28 12:26:18;;;;;;;0.95;0.40;;;6.30;99.90;;;;;;4831403;29;20053;-84
2023/02/28 12:29:02;;;;;;;1.27;0.30;;;6.20;99.90;;;;;;4817303;29;20138;-83
2023/02/28 12:31:31;;;;;;;0.90;0.30;;;6.30;99.90;;;;;;4826748;29;20136;-84
2023/02/28 12:34:02;;;;;;;1.02;0.30;;;6.40;99.90;;;;;;4829242;29;20081;-83
2023/02/28 12:36:28;;;;;;;0.88;0.20;;;6.60;99.90;;;;;;4819135;29;20083;-83
2023/02/28 12:39:00;;;;;;;1.60;0.30;;;6.80;99.90;;;;;;4828586;29;20189;-83
2023/02/28 12:41:36;;;;;;;0.88;0.20;;;6.80;99.90;;;;;;4816012;29;20601;-84
2023/02/28 12:44:11;;;;;;;0.73;0.20;;;6.90;99.90;;;;;;4828899;29;20041;-84
2023/02/28 12:46:43;;;;;;;0.82;0.20;;;6.80;99.90;;;;;;4848070;29;20099;-83
2023/02/28 12:49:15;;;;;;;0.85;0.20;;;6.80;99.90;;;;;;4849787;29;20076;-83
2023/02/28 12:51:41;;;;;;;0.77;0.20;;;6.80;99.90;;;;;;4848877;29;20597;-83
2023/02/28 12:54:09;;;;;;;0.88;0.20;;;6.70;99.90;;;;;;4832628;29;20601;-83
2023/02/28 12:56:54;;;;;;;0.65;0.20;;;6.70;99.90;;;;;;4865261;29;21455;-82
2023/02/28 12:59:37;;;;;;;1.25;0.20;;;6.70;99.90;;;;;;4855398;29;20040;-82
2023/02/28 13:02:18;;;;;;;0.63;0.15;;;6.50;99.90;;;;;;4865108;29;20052;-83
2023/02/28 13:05:03;;;;;;;0.38;0.20;;;6.60;99.90;;;;;;4887973;29;20115;-82
2023/02/28 13:07:35;;;;;;;0.45;0.10;;;6.50;99.90;;;;;;4875030;29;20035;-82
2023/02/28 13:10:04;;;;;;;0.60;0.20;;;6.50;99.90;;;;;;4882547;29;20036;-83
2023/02/28 13:12:30;;;;;;;0.70;0.20;;;6.70;99.90;;;;;;4890421;29;20651;-82
2023/02/28 13:15:21;;;;;;;1.15;0.20;;;6.80;99.90;;;;;;4876777;29;20035;-82